Time;durP1;ratioP1;P1;durP2;ratioP2;P2;SDS_P1;SDS_P2;PMS_P1;PMS_P2;Temp;Humidity;BMP_temperature;BMP_pressure;BME280_temperature;BME280_humidity;BME280_pressure;Samples;Min_cycle;Max_cycle;Signal;HPM_P1;HPM_P2
2021/05/11 00:02:26;;;;;;;3.60;2.03;;;21.90;77.60;;;;;;5074851;28;20398;-49
2021/05/11 00:04:54;;;;;;;2.58;1.38;;;22.00;77.30;;;;;;5075047;28;20025;-54
2021/05/11 00:07:21;;;;;;;2.72;1.75;;;22.00;76.80;;;;;;5075195;28;20052;-58
2021/05/11 00:09:49;;;;;;;2.88;1.48;;;22.00;76.50;;;;;;5074582;28;20106;-55
2021/05/11 00:12:16;;;;;;;2.83;1.27;;;22.10;75.90;;;;;;5074769;28;20038;-54
2021/05/11 00:14:43;;;;;;;3.40;1.60;;;22.20;76.70;;;;;;5074743;28;20402;-55
2021/05/11 00:17:10;;;;;;;3.08;1.70;;;22.20;76.20;;;;;;5074875;28;20031;-57
2021/05/11 00:19:38;;;;;;;3.95;1.52;;;22.20;74.80;;;;;;5075000;28;20021;-52
2021/05/11 00:22:05;;;;;;;2.33;1.58;;;22.20;76.10;;;;;;5075051;28;20021;-55
2021/05/11 00:24:32;;;;;;;3.40;1.60;;;22.20;76.30;;;;;;5074154;28;20035;-56
2021/05/11 00:27:00;;;;;;;2.45;1.77;;;22.30;75.00;;;;;;5074284;28;20050;-55
2021/05/11 00:29:27;;;;;;;3.72;1.40;;;22.30;76.10;;;;;;5074839;28;20054;-59
2021/05/11 00:31:54;;;;;;;2.75;1.58;;;22.40;75.90;;;;;;5074597;28;20063;-52
2021/05/11 00:34:22;;;;;;;3.40;1.75;;;22.50;74.10;;;;;;5074471;28;20024;-57
2021/05/11 00:36:49;;;;;;;3.03;2.00;;;22.70;72.80;;;;;;5073963;28;20033;-52
2021/05/11 00:39:16;;;;;;;2.20;1.60;;;22.70;74.50;;;;;;5072964;28;20048;-53
2021/05/11 00:41:44;;;;;;;4.63;1.70;;;22.70;74.40;;;;;;5074493;28;20025;-52
2021/05/11 00:44:22;;;;;;;2.17;1.45;;;22.70;74.10;;;;;;5073533;28;20028;-50
2021/05/11 00:47:01;;;;;;;2.38;1.55;;;22.80;73.90;;;;;;5074671;28;20089;-56
2021/05/11 00:49:30;;;;;;;2.78;1.30;;;22.90;71.80;;;;;;5074616;28;20511;-59
2021/05/11 00:51:59;;;;;;;3.33;1.85;;;22.80;73.20;;;;;;5074082;28;20127;-55
2021/05/11 00:54:27;;;;;;;4.10;1.50;;;22.90;73.80;;;;;;5072580;28;20503;-59
2021/05/11 00:56:55;;;;;;;4.13;1.80;;;22.90;73.40;;;;;;5073089;28;20039;-53
2021/05/11 00:59:27;;;;;;;2.10;1.27;;;23.00;73.10;;;;;;5073999;28;20054;-58
2021/05/11 01:01:56;;;;;;;4.03;1.52;;;23.10;73.20;;;;;;5073834;28;20024;-60
2021/05/11 01:04:24;;;;;;;4.43;1.42;;;23.10;73.00;;;;;;5073955;28;20043;-49
2021/05/11 01:06:55;;;;;;;3.33;1.73;;;23.20;72.90;;;;;;5074266;28;20151;-51
2021/05/11 01:09:24;;;;;;;4.78;1.45;;;23.20;73.50;;;;;;5074154;28;20574;-58
2021/05/11 01:11:53;;;;;;;2.50;1.25;;;23.30;72.00;;;;;;5073192;28;20483;-57
2021/05/11 01:14:21;;;;;;;4.72;1.60;;;23.40;71.80;;;;;;5073943;28;20032;-60
2021/05/11 01:16:54;;;;;;;2.30;1.17;;;23.40;71.90;;;;;;5073598;28;20111;-57
2021/05/11 01:22:27;;;;;;;5.30;1.70;;;23.40;70.10;;;;;;5074141;28;20495;-59
2021/05/11 01:25:04;;;;;;;1.92;1.20;;;23.40;70.90;;;;;;5073745;28;20029;-60
2021/05/11 01:30:43;;;;;;;3.03;1.55;;;23.50;71.70;;;;;;5073608;28;20017;-51
2021/05/11 01:52:32;;;;;;;2.10;1.00;;;23.90;66.20;;;;;;5073101;28;20033;-60
2021/05/11 02:25:10;;;;;;;2.17;0.95;;;24.10;70.40;;;;;;5071951;28;20025;-57
2021/05/11 02:27:38;;;;;;;2.42;1.45;;;24.10;70.30;;;;;;5072674;28;20032;-55
2021/05/11 02:30:11;;;;;;;1.23;1.00;;;24.30;67.20;;;;;;5072645;28;20020;-50
2021/05/11 02:32:40;;;;;;;3.40;1.13;;;24.20;69.60;;;;;;5072059;28;20033;-58
2021/05/11 02:35:09;;;;;;;2.15;1.20;;;24.30;69.70;;;;;;5072093;28;20135;-53
2021/05/11 02:37:36;;;;;;;1.90;1.00;;;24.30;68.70;;;;;;5071855;28;20028;-52
2021/05/11 02:40:07;;;;;;;2.00;1.00;;;24.30;67.60;;;;;;5071905;28;20021;-58
2021/05/11 02:42:35;;;;;;;7.72;1.30;;;24.30;67.70;;;;;;5070464;28;20395;-51
2021/05/11 02:45:03;;;;;;;1.27;0.88;;;24.20;66.60;;;;;;5070673;28;20103;-52
2021/05/11 02:47:30;;;;;;;5.18;1.30;;;24.20;66.10;;;;;;5071607;28;20032;-50
2021/05/11 02:50:04;;;;;;;3.08;0.98;;;24.00;67.20;;;;;;5071548;28;20031;-56
2021/05/11 02:52:31;;;;;;;1.77;0.80;;;23.90;69.70;;;;;;5071890;28;20340;-57
2021/05/11 02:54:59;;;;;;;1.55;0.80;;;23.70;68.30;;;;;;5072011;28;20028;-49
2021/05/11 02:57:26;;;;;;;2.03;0.90;;;23.70;69.70;;;;;;5070990;28;20020;-60
2021/05/11 02:59:53;;;;;;;2.65;0.75;;;23.60;68.00;;;;;;5072196;28;20540;-52
2021/05/11 03:02:21;;;;;;;1.55;1.08;;;23.40;71.80;;;;;;5072354;28;20016;-53
2021/05/11 03:04:48;;;;;;;3.22;1.08;;;23.50;71.40;;;;;;5085350;28;20112;-54
2021/05/11 03:07:15;;;;;;;7.97;0.88;;;23.40;72.60;;;;;;5090886;28;20388;-55
2021/05/11 03:09:42;;;;;;;1.75;1.00;;;23.30;69.90;;;;;;5091944;28;20028;-53
2021/05/11 03:12:10;;;;;;;1.30;0.90;;;23.20;72.80;;;;;;5092065;28;20028;-47
2021/05/11 03:14:37;;;;;;;0.70;0.60;;;23.20;72.30;;;;;;5090574;28;20030;-50
2021/05/11 03:17:04;;;;;;;1.23;0.60;;;23.20;72.10;;;;;;5091660;28;20474;-52
2021/05/11 03:19:32;;;;;;;1.90;0.82;;;23.00;73.80;;;;;;5091732;28;20043;-53
2021/05/11 03:21:59;;;;;;;0.65;0.55;;;22.90;74.20;;;;;;5091695;28;20421;-52
2021/05/11 03:24:27;;;;;;;0.93;0.70;;;22.90;74.70;;;;;;5090924;28;20035;-56
2021/05/11 03:26:54;;;;;;;1.05;0.70;;;22.90;71.90;;;;;;5092041;28;20052;-56
2021/05/11 03:29:22;;;;;;;2.63;0.60;;;22.90;71.80;;;;;;5091939;28;20106;-51
2021/05/11 03:31:49;;;;;;;2.00;0.73;;;22.90;72.30;;;;;;5091626;28;20080;-53
2021/05/11 03:34:16;;;;;;;3.33;1.13;;;23.10;72.90;;;;;;5091940;28;20062;-55
2021/05/11 03:36:44;;;;;;;0.80;0.60;;;23.20;74.90;;;;;;5091603;28;20078;-55
2021/05/11 03:39:11;;;;;;;1.67;0.82;;;23.40;73.40;;;;;;5091168;28;20032;-51
2021/05/11 03:41:41;;;;;;;2.90;0.98;;;23.50;70.50;;;;;;5091983;28;20470;-49
2021/05/11 03:44:15;;;;;;;3.95;0.90;;;23.70;71.10;;;;;;5091453;28;20036;-58
2021/05/11 03:46:42;;;;;;;0.85;0.70;;;23.80;67.60;;;;;;5091378;28;20030;-49
2021/05/11 03:49:10;;;;;;;2.08;0.73;;;23.80;70.90;;;;;;5092035;28;20534;-51
2021/05/11 03:51:38;;;;;;;1.92;0.85;;;23.80;69.60;;;;;;5091800;28;20040;-54
2021/05/11 03:54:07;;;;;;;2.13;1.00;;;23.90;66.70;;;;;;5092071;28;20035;-59
2021/05/11 03:56:35;;;;;;;1.95;0.70;;;23.90;67.70;;;;;;5091442;28;20103;-53
2021/05/11 03:59:03;;;;;;;2.53;0.65;;;23.70;69.30;;;;;;5091821;28;20020;-55
2021/05/11 04:01:31;;;;;;;3.75;0.88;;;23.70;70.10;;;;;;5090433;28;20035;-52
2021/05/11 04:03:58;;;;;;;2.78;0.82;;;23.80;68.70;;;;;;5091295;28;20035;-56
2021/05/11 04:06:26;;;;;;;3.60;0.82;;;23.90;70.30;;;;;;5091309;28;20103;-52
2021/05/11 04:08:58;;;;;;;0.70;0.70;;;24.00;70.30;;;;;;5091676;28;20078;-50
2021/05/11 04:16:47;;;;;;;2.97;1.17;;;24.10;65.90;;;;;;5091382;28;20028;-60
2021/05/11 04:19:14;;;;;;;5.15;1.20;;;23.90;68.30;;;;;;5091635;28;20036;-57
2021/05/11 04:21:42;;;;;;;3.33;0.82;;;23.80;65.80;;;;;;5091578;28;20024;-55
2021/05/11 04:24:09;;;;;;;2.92;1.10;;;23.70;68.00;;;;;;5091386;28;20069;-58
2021/05/11 04:26:37;;;;;;;3.00;1.10;;;23.60;67.00;;;;;;5091595;28;20111;-58
2021/05/11 04:29:04;;;;;;;1.83;0.70;;;23.50;70.00;;;;;;5091681;28;20028;-54
2021/05/11 04:31:37;;;;;;;3.08;1.08;;;23.30;70.10;;;;;;5091573;28;20028;-57
2021/05/11 04:34:04;;;;;;;2.88;1.30;;;23.20;69.00;;;;;;5091195;28;20028;-58
2021/05/11 04:36:32;;;;;;;6.47;1.20;;;23.10;72.00;;;;;;5093567;28;20027;-55
2021/05/11 04:38:59;;;;;;;2.28;1.30;;;23.00;70.50;;;;;;5093111;28;20028;-56
2021/05/11 04:41:26;;;;;;;5.95;1.65;;;22.90;71.20;;;;;;5094799;28;20028;-59
2021/05/11 04:43:54;;;;;;;2.95;1.30;;;22.70;73.60;;;;;;5095024;28;20020;-55
2021/05/11 04:48:51;;;;;;;2.63;0.90;;;22.50;73.00;;;;;;5094480;28;20064;-54
2021/05/11 04:51:20;;;;;;;4.85;0.70;;;22.50;74.20;;;;;;5094639;28;20031;-54
2021/05/11 04:53:49;;;;;;;3.85;1.10;;;22.40;73.30;;;;;;5094802;28;20020;-56
2021/05/11 04:56:16;;;;;;;2.10;1.13;;;22.30;74.80;;;;;;5094778;28;20118;-48
2021/05/11 04:58:43;;;;;;;2.58;1.05;;;22.30;74.00;;;;;;5094728;28;20328;-54
2021/05/11 05:01:11;;;;;;;1.45;0.73;;;22.20;74.40;;;;;;5094201;28;20073;-56
2021/05/11 05:03:44;;;;;;;1.05;0.65;;;22.20;74.80;;;;;;5094483;28;20016;-48
2021/05/11 05:06:11;;;;;;;2.53;1.00;;;22.10;74.80;;;;;;5094526;28;20024;-53
2021/05/11 05:08:38;;;;;;;1.45;0.88;;;22.10;75.80;;;;;;5093833;28;20028;-53
2021/05/11 05:11:06;;;;;;;2.83;1.20;;;22.00;76.10;;;;;;5093653;28;20040;-54
2021/05/11 05:13:33;;;;;;;3.05;1.45;;;22.00;77.20;;;;;;5093992;28;20060;-56
2021/05/11 05:16:00;;;;;;;6.32;0.57;;;21.90;75.90;;;;;;5078094;28;20062;-52
2021/05/11 05:18:29;;;;;;;3.03;1.00;;;21.90;74.20;;;;;;5072887;28;20471;-53
2021/05/11 05:20:56;;;;;;;0.57;0.50;;;21.80;77.70;;;;;;5073289;28;20096;-54
2021/05/11 05:23:34;;;;;;;2.47;0.95;;;21.70;77.80;;;;;;5073342;28;20028;-58
2021/05/11 05:26:07;;;;;;;2.88;1.00;;;21.70;77.10;;;;;;5074013;28;20027;-60
2021/05/11 05:28:38;;;;;;;1.77;0.90;;;21.70;76.40;;;;;;5073629;28;20086;-53
2021/05/11 05:31:06;;;;;;;5.80;1.10;;;21.70;77.80;;;;;;5074006;28;20126;-59
2021/05/11 05:33:38;;;;;;;1.52;0.80;;;21.60;77.50;;;;;;5073766;28;20029;-55
2021/05/11 05:36:07;;;;;;;4.95;0.77;;;21.60;78.40;;;;;;5073358;28;20040;-59
2021/05/11 05:38:37;;;;;;;1.70;1.08;;;21.50;78.10;;;;;;5072259;28;20108;-58
2021/05/11 05:41:22;;;;;;;1.73;0.90;;;21.50;78.10;;;;;;5073587;28;20024;-56
2021/05/11 05:43:50;;;;;;;1.45;0.88;;;21.50;79.00;;;;;;5073037;28;20075;-53
2021/05/11 05:46:18;;;;;;;0.90;0.70;;;21.40;78.60;;;;;;5072991;28;20070;-59
2021/05/11 05:48:47;;;;;;;1.58;0.85;;;21.40;78.70;;;;;;5072618;28;20027;-55
2021/05/11 05:51:15;;;;;;;3.78;1.20;;;21.40;79.50;;;;;;5073000;28;20081;-53
2021/05/11 05:53:44;;;;;;;4.30;0.88;;;21.30;79.90;;;;;;5072774;28;20028;-55
2021/05/11 05:56:16;;;;;;;1.13;0.63;;;21.30;79.60;;;;;;5073428;28;20028;-49
2021/05/11 05:58:42;;;;;;;;;;;21.30;78.40;;;;;;5073191;28;20033;-50
2021/05/11 06:01:10;;;;;;;1.75;1.10;;;21.30;79.80;;;;;;5072817;28;19904;-52
2021/05/11 06:03:49;;;;;;;2.53;0.80;;;21.30;79.80;;;;;;5073273;28;20020;-54
2021/05/11 06:06:17;;;;;;;1.17;0.70;;;21.20;78.30;;;;;;5072738;28;20478;-57
2021/05/11 06:08:44;;;;;;;1.98;0.95;;;21.20;79.60;;;;;;5072358;28;20085;-53
2021/05/11 06:13:49;;;;;;;2.83;0.98;;;21.20;79.70;;;;;;5072073;28;20117;-60
2021/05/11 06:19:02;;;;;;;1.75;1.15;;;21.20;81.40;;;;;;5072628;28;20513;-50
2021/05/11 06:21:29;;;;;;;2.72;1.13;;;21.10;81.50;;;;;;5072220;28;20577;-57
2021/05/11 06:23:57;;;;;;;3.58;0.95;;;21.10;81.70;;;;;;5072515;28;20433;-52
2021/05/11 06:26:24;;;;;;;1.75;0.90;;;21.10;81.10;;;;;;5072270;28;20104;-53
2021/05/11 06:28:53;;;;;;;7.28;1.45;;;21.10;80.60;;;;;;5072135;28;20024;-52
2021/05/11 06:31:21;;;;;;;8.35;0.90;;;21.10;81.70;;;;;;5072352;28;20254;-54
2021/05/11 06:33:51;;;;;;;4.10;0.93;;;21.10;81.40;;;;;;5071985;28;20134;-57
2021/05/11 06:36:18;;;;;;;0.68;0.60;;;21.10;80.50;;;;;;5071620;28;20051;-47
2021/05/11 06:38:45;;;;;;;1.70;0.70;;;21.00;80.40;;;;;;5071109;28;20153;-47
2021/05/11 06:41:13;;;;;;;1.33;0.75;;;21.00;81.20;;;;;;5072220;28;20414;-51
2021/05/11 06:43:43;;;;;;;2.20;0.85;;;21.00;81.20;;;;;;5071828;28;20047;-48
2021/05/11 06:46:43;;;;;;;0.95;0.70;;;21.00;80.70;;;;;;5071838;28;20037;-55
2021/05/11 06:53:55;;;;;;;1.67;0.88;;;21.00;82.20;;;;;;5071949;28;20471;-52
2021/05/11 06:56:23;;;;;;;0.88;0.57;;;20.90;82.70;;;;;;5071869;28;20025;-50
2021/05/11 06:58:51;;;;;;;0.95;0.68;;;20.90;83.10;;;;;;5070935;28;20023;-48
2021/05/11 07:01:22;;;;;;;4.90;1.13;;;20.90;82.90;;;;;;5071433;28;20031;-48
2021/05/11 07:03:49;;;;;;;1.73;0.70;;;20.90;83.10;;;;;;5071821;28;20028;-47
2021/05/11 07:06:18;;;;;;;1.48;0.80;;;20.90;83.30;;;;;;5071067;28;20461;-52
2021/05/11 07:08:55;;;;;;;1.75;0.90;;;20.80;83.30;;;;;;5071353;28;20060;-56
2021/05/11 07:13:51;;;;;;;3.85;0.90;;;20.80;83.40;;;;;;5072047;28;20031;-52
2021/05/11 07:16:18;;;;;;;1.55;0.90;;;20.90;83.50;;;;;;5071652;28;20471;-51
2021/05/11 07:18:46;;;;;;;1.55;0.88;;;20.90;83.50;;;;;;5070645;28;20021;-56
2021/05/11 07:21:13;;;;;;;2.85;0.93;;;20.80;83.70;;;;;;5071734;28;20511;-53
2021/05/11 07:23:40;;;;;;;1.73;0.65;;;20.80;83.70;;;;;;5072058;28;20498;-49
2021/05/11 07:31:28;;;;;;;3.08;0.95;;;20.80;83.90;;;;;;5071592;28;20077;-50
2021/05/11 07:33:57;;;;;;;1.25;0.85;;;20.80;83.90;;;;;;5071452;28;20025;-54
2021/05/11 07:36:25;;;;;;;1.70;0.95;;;20.70;84.00;;;;;;5071261;28;20590;-55
2021/05/11 07:38:53;;;;;;;1.13;0.82;;;20.70;84.10;;;;;;5071357;28;20099;-55
2021/05/11 07:41:23;;;;;;;2.30;1.10;;;20.70;84.00;;;;;;5070263;28;20025;-55
2021/05/11 07:43:57;;;;;;;1.00;0.88;;;20.60;84.10;;;;;;5071233;28;20145;-58
2021/05/11 08:16:15;;;;;;;1.20;0.80;;;20.50;84.90;;;;;;5073138;28;20521;-56
2021/05/11 08:18:48;;;;;;;2.13;0.90;;;20.40;84.80;;;;;;5074418;28;20033;-48
2021/05/11 08:29:33;;;;;;;1.33;0.70;;;20.40;85.00;;;;;;5074996;28;20401;-53
2021/05/11 08:32:01;;;;;;;1.55;1.15;;;20.40;85.00;;;;;;5074444;28;20128;-59
2021/05/11 08:34:28;;;;;;;2.03;0.88;;;20.30;85.00;;;;;;5074525;28;20443;-52
2021/05/11 08:36:57;;;;;;;1.67;0.90;;;20.30;85.10;;;;;;5074739;28;20060;-55
2021/05/11 08:39:24;;;;;;;1.45;0.82;;;20.30;85.10;;;;;;5075404;28;20097;-52
2021/05/11 08:41:51;;;;;;;2.95;1.10;;;20.30;85.10;;;;;;5073613;28;20425;-54
2021/05/11 08:44:19;;;;;;;1.30;0.82;;;20.30;85.20;;;;;;5075059;28;20021;-57
2021/05/11 08:46:47;;;;;;;1.48;0.70;;;20.30;85.20;;;;;;5074569;28;20044;-53
2021/05/11 08:49:15;;;;;;;2.00;0.70;;;20.30;85.30;;;;;;5074175;28;20175;-54
2021/05/11 08:52:07;;;;;;;1.67;1.10;;;20.30;85.30;;;;;;5074128;28;20041;-56
2021/05/11 09:08:15;;;;;;;1.90;0.82;;;20.20;85.60;;;;;;5052433;28;20128;-54
2021/05/11 09:25:54;;;;;;;1.95;0.90;;;20.10;85.60;;;;;;5074431;28;20043;-60
2021/05/11 09:28:43;;;;;;;1.83;0.98;;;20.20;85.70;;;;;;5073807;28;20028;-50
2021/05/11 09:31:41;;;;;;;1.70;0.80;;;20.10;85.80;;;;;;5073893;28;20036;-58
2021/05/11 09:34:21;;;;;;;1.40;0.80;;;20.10;85.80;;;;;;5073608;28;20074;-57
2021/05/11 10:43:51;;;;;;;1.55;1.13;;;20.30;85.50;;;;;;5065499;28;20032;-48
2021/05/11 10:48:29;;;;;;;1.40;1.05;;;20.30;85.40;;;;;;5069643;28;20051;-53
2021/05/11 10:50:56;;;;;;;3.72;1.08;;;20.30;85.40;;;;;;5067408;28;20012;-51
2021/05/11 10:53:38;;;;;;;1.90;1.10;;;20.30;85.50;;;;;;5061417;28;20136;-56
2021/05/11 10:56:36;;;;;;;3.05;1.20;;;20.30;85.50;;;;;;5068312;28;20028;-54
2021/05/11 11:02:03;;;;;;;5.22;1.10;;;20.30;85.40;;;;;;5067336;28;20040;-55
2021/05/11 11:04:44;;;;;;;2.67;1.17;;;20.30;85.40;;;;;;5066338;28;20032;-51
2021/05/11 11:07:14;;;;;;;2.43;0.90;;;20.40;85.30;;;;;;5069465;28;20028;-52
2021/05/11 11:09:54;;;;;;;2.95;0.98;;;20.30;85.20;;;;;;5070148;28;20140;-53
2021/05/11 11:12:22;;;;;;;1.75;0.82;;;20.30;85.30;;;;;;5063863;28;20410;-56
2021/05/11 11:14:50;;;;;;;2.65;1.10;;;20.30;85.20;;;;;;5068049;28;20413;-57
2021/05/11 11:17:17;;;;;;;1.92;1.02;;;20.30;85.40;;;;;;5069886;28;20060;-58
2021/05/11 11:19:55;;;;;;;2.55;1.13;;;20.30;85.40;;;;;;5070047;28;20158;-51
2021/05/11 11:25:13;;;;;;;1.83;1.10;;;20.30;85.10;;;;;;5066891;28;20027;-58
2021/05/11 11:27:41;;;;;;;2.95;1.55;;;20.30;85.30;;;;;;5069247;28;20025;-55
2021/05/11 11:30:11;;;;;;;1.75;1.00;;;20.30;85.20;;;;;;5069932;28;20051;-58
2021/05/11 11:32:39;;;;;;;1.88;1.00;;;20.30;85.20;;;;;;5064663;28;20033;-52
2021/05/11 11:35:08;;;;;;;2.63;1.25;;;20.30;85.20;;;;;;5070115;28;20471;-59
2021/05/11 11:37:37;;;;;;;1.60;1.08;;;20.30;85.30;;;;;;5069750;28;20024;-52
2021/05/11 11:40:07;;;;;;;2.83;1.15;;;20.30;85.30;;;;;;5069973;28;20074;-56
2021/05/11 11:42:41;;;;;;;2.25;0.98;;;20.30;85.40;;;;;;5064526;28;20072;-52
2021/05/11 11:45:23;;;;;;;1.92;1.15;;;20.20;85.40;;;;;;5072841;28;20098;-47
2021/05/11 11:48:00;;;;;;;2.17;1.00;;;20.30;85.50;;;;;;5070988;28;20056;-58
2021/05/11 11:50:30;;;;;;;2.45;1.10;;;20.20;85.40;;;;;;5073325;28;20032;-52
2021/05/11 11:53:07;;;;;;;1.52;0.90;;;20.30;85.60;;;;;;5070378;28;20032;-48
2021/05/11 11:58:02;;;;;;;3.28;1.08;;;20.20;85.60;;;;;;5073736;28;20025;-50
2021/05/11 12:00:37;;;;;;;2.47;1.20;;;20.20;85.70;;;;;;5073232;28;20025;-49
2021/05/11 12:03:12;;;;;;;3.20;1.33;;;20.20;85.80;;;;;;5070080;28;20064;-48
2021/05/11 12:06:00;;;;;;;1.73;1.10;;;20.20;85.80;;;;;;5073378;28;20016;-53
2021/05/11 12:08:31;;;;;;;2.25;1.00;;;20.20;85.70;;;;;;5072458;28;20028;-56
2021/05/11 12:11:05;;;;;;;1.63;1.17;;;20.20;85.80;;;;;;5073202;28;20075;-52
2021/05/11 12:13:40;;;;;;;1.80;1.05;;;20.20;85.80;;;;;;5069225;28;20056;-49
2021/05/11 12:16:18;;;;;;;2.08;1.30;;;20.10;85.70;;;;;;5073246;28;20017;-53
2021/05/11 12:19:31;;;;;;;2.25;1.08;;;20.10;85.60;;;;;;5073040;28;20039;-57
2021/05/11 12:22:04;;;;;;;1.50;0.85;;;20.20;85.70;;;;;;5065960;28;20044;-59
2021/05/11 12:24:41;;;;;;;1.33;1.00;;;20.10;85.80;;;;;;5070073;28;20036;-53
2021/05/11 12:27:20;;;;;;;1.70;0.90;;;20.10;85.80;;;;;;5072565;28;20024;-52
2021/05/11 12:30:08;;;;;;;2.13;1.23;;;20.10;85.90;;;;;;5072882;28;20028;-58
2021/05/11 12:32:36;;;;;;;1.35;0.80;;;20.10;85.80;;;;;;5067804;28;20035;-54
2021/05/11 12:35:15;;;;;;;1.77;1.00;;;20.10;85.80;;;;;;5072530;28;20463;-54
2021/05/11 12:37:56;;;;;;;2.13;1.05;;;20.10;85.90;;;;;;5071069;28;20032;-56
2021/05/11 12:40:31;;;;;;;1.83;1.03;;;20.10;85.90;;;;;;5072757;28;20016;-56
2021/05/11 12:43:03;;;;;;;1.42;1.30;;;20.00;85.90;;;;;;5068990;28;20024;-59
2021/05/11 12:45:39;;;;;;;2.75;1.27;;;20.10;86.00;;;;;;5071574;28;20052;-57
2021/05/11 12:48:11;;;;;;;1.73;1.02;;;20.00;86.00;;;;;;5069452;28;20391;-48
2021/05/11 12:50:44;;;;;;;2.35;0.93;;;20.00;86.00;;;;;;5069493;28;20036;-55
2021/05/11 12:53:40;;;;;;;1.92;1.17;;;20.00;86.10;;;;;;5069337;28;20044;-50
2021/05/11 12:56:28;;;;;;;1.80;1.02;;;19.90;86.00;;;;;;5068464;28;20039;-53
2021/05/11 13:28:18;;;;;;;2.83;1.10;;;19.70;86.70;;;;;;5074374;28;20020;-49
2021/05/11 13:35:46;;;;;;;2.58;1.10;;;19.70;86.90;;;;;;5074136;28;20371;-56
2021/05/11 13:38:13;;;;;;;3.58;1.15;;;19.60;87.00;;;;;;5073915;28;20475;-50
2021/05/11 13:40:40;;;;;;;2.92;1.65;;;19.60;87.00;;;;;;5073804;28;20048;-55
2021/05/11 13:43:08;;;;;;;1.75;1.23;;;19.60;87.00;;;;;;5073972;28;20025;-50
2021/05/11 13:45:35;;;;;;;2.08;1.00;;;19.60;87.20;;;;;;5074073;28;20025;-53
2021/05/11 13:48:10;;;;;;;4.85;1.25;;;19.60;87.30;;;;;;5074079;28;20379;-50
2021/05/11 13:53:05;;;;;;;4.70;1.20;;;19.50;87.50;;;;;;5073586;28;20037;-52
2021/05/11 13:55:40;;;;;;;2.35;0.93;;;19.60;87.50;;;;;;5073638;28;20025;-54
2021/05/11 14:03:38;;;;;;;2.88;1.52;;;19.50;87.60;;;;;;5074071;28;20382;-55
2021/05/11 14:06:05;;;;;;;1.52;1.20;;;19.50;87.70;;;;;;5073556;28;20467;-51
2021/05/11 14:08:33;;;;;;;2.60;1.40;;;19.50;87.70;;;;;;5065737;28;20162;-51
2021/05/11 14:11:00;;;;;;;3.28;1.15;;;19.50;87.70;;;;;;5069956;28;20044;-49
2021/05/11 14:13:28;;;;;;;4.15;1.23;;;19.50;87.80;;;;;;5072233;28;20033;-57
2021/05/11 14:15:55;;;;;;;1.52;0.93;;;19.50;87.80;;;;;;5070214;28;20029;-52
2021/05/11 14:18:22;;;;;;;1.60;1.00;;;19.50;87.90;;;;;;5070682;28;20054;-48
2021/05/11 14:20:50;;;;;;;3.78;1.02;;;19.40;87.90;;;;;;5066641;28;20143;-57
2021/05/11 14:23:17;;;;;;;2.30;0.80;;;19.40;87.90;;;;;;5070640;28;20029;-48
2021/05/11 14:25:44;;;;;;;1.77;0.95;;;19.40;88.20;;;;;;5071607;28;20032;-54
2021/05/11 14:28:12;;;;;;;3.15;1.50;;;19.40;87.90;;;;;;5066735;28;20021;-44
2021/05/11 14:30:39;;;;;;;6.47;1.73;;;19.40;87.90;;;;;;5070352;28;20494;-47
2021/05/11 14:33:07;;;;;;;2.13;0.98;;;19.40;88.00;;;;;;5070939;28;20037;-52
2021/05/11 14:35:34;;;;;;;7.47;1.77;;;19.40;87.90;;;;;;5070760;28;20032;-49
2021/05/11 14:38:02;;;;;;;4.32;1.08;;;19.40;88.00;;;;;;5069803;28;20051;-50
2021/05/11 14:40:29;;;;;;;2.63;0.90;;;19.40;88.00;;;;;;5070039;28;20090;-51
2021/05/11 14:42:57;;;;;;;2.78;1.08;;;19.30;87.90;;;;;;5067053;28;20475;-52
2021/05/11 14:45:26;;;;;;;3.20;1.33;;;19.30;87.90;;;;;;5070168;28;20039;-52
2021/05/11 14:47:54;;;;;;;3.28;1.33;;;19.30;87.90;;;;;;5070292;28;20091;-52
2021/05/11 14:50:23;;;;;;;2.17;0.75;;;19.30;88.00;;;;;;5070128;28;20123;-49
2021/05/11 14:52:56;;;;;;;1.77;1.08;;;19.30;88.00;;;;;;5066535;28;20112;-46
2021/05/11 14:55:25;;;;;;;2.50;1.30;;;19.30;88.00;;;;;;5068272;28;20043;-50
2021/05/11 14:57:53;;;;;;;7.43;1.23;;;19.30;88.00;;;;;;5069927;28;20056;-48
2021/05/11 15:00:21;;;;;;;3.67;1.30;;;19.30;87.90;;;;;;5069724;28;20036;-49
2021/05/11 15:02:48;;;;;;;4.65;1.30;;;19.30;88.00;;;;;;5064098;28;20896;-48
2021/05/11 15:05:16;;;;;;;2.35;1.30;;;19.30;88.10;;;;;;5069999;28;20024;-49
2021/05/11 15:07:44;;;;;;;5.50;0.90;;;19.30;88.00;;;;;;5069955;28;20187;-48
2021/05/11 15:10:11;;;;;;;1.52;0.70;;;19.20;88.10;;;;;;5067729;28;20522;-47
2021/05/11 15:12:38;;;;;;;2.47;1.48;;;19.30;88.10;;;;;;5066423;28;20072;-51
2021/05/11 15:15:06;;;;;;;2.97;1.50;;;19.20;88.10;;;;;;5070142;28;20024;-48
2021/05/11 15:20:01;;;;;;;1.92;0.98;;;19.20;88.70;;;;;;5069574;28;20402;-49
2021/05/11 15:22:28;;;;;;;3.13;1.20;;;19.20;88.10;;;;;;5069401;28;20493;-47
2021/05/11 15:24:56;;;;;;;3.53;1.00;;;19.20;88.10;;;;;;5070293;28;20129;-48
2021/05/11 15:27:23;;;;;;;3.63;1.02;;;19.20;88.10;;;;;;5069059;28;20152;-44
2021/05/11 15:29:51;;;;;;;2.05;1.10;;;19.20;88.10;;;;;;5070072;28;20040;-44
2021/05/11 15:32:39;;;;;;;4.15;1.17;;;19.20;88.00;;;;;;5062596;28;20372;-47
2021/05/11 15:35:10;;;;;;;2.42;1.00;;;19.20;88.10;;;;;;5067984;28;20408;-44
2021/05/11 15:37:38;;;;;;;2.63;1.30;;;19.20;88.00;;;;;;5069385;28;20029;-47
2021/05/11 15:40:11;;;;;;;1.85;1.10;;;19.20;88.10;;;;;;5069590;28;20028;-46
2021/05/11 15:42:38;;;;;;;2.13;0.80;;;19.20;88.10;;;;;;5064759;28;20481;-50
2021/05/11 15:45:06;;;;;;;2.45;1.33;;;19.10;88.10;;;;;;5069777;28;20035;-55
2021/05/11 15:47:37;;;;;;;2.47;1.10;;;19.10;88.10;;;;;;5069342;28;20426;-48
2021/05/11 15:50:06;;;;;;;3.35;1.20;;;19.10;88.00;;;;;;5066168;28;20766;-49
2021/05/11 15:52:33;;;;;;;3.15;1.20;;;19.10;88.10;;;;;;5066019;28;20032;-48
2021/05/11 15:55:00;;;;;;;2.75;1.10;;;19.10;88.10;;;;;;5069819;28;20101;-46
2021/05/11 15:57:28;;;;;;;3.60;1.30;;;19.10;88.10;;;;;;5068671;28;20386;-44
2021/05/11 15:59:55;;;;;;;3.40;1.15;;;19.10;88.10;;;;;;5069860;28;20025;-44
2021/05/11 16:02:22;;;;;;;1.90;0.98;;;19.10;88.20;;;;;;5066453;28;20029;-46
2021/05/11 16:04:49;;;;;;;2.38;1.20;;;19.10;88.20;;;;;;5069424;28;20031;-47
2021/05/11 16:07:17;;;;;;;1.77;0.70;;;19.10;88.30;;;;;;5068463;28;20522;-46
2021/05/11 16:09:44;;;;;;;2.72;0.93;;;19.10;88.10;;;;;;5069489;28;20367;-47
2021/05/11 16:12:11;;;;;;;4.72;1.40;;;19.00;88.20;;;;;;5066381;28;20028;-45
2021/05/11 16:14:39;;;;;;;2.05;0.88;;;19.00;88.20;;;;;;5068457;28;20064;-45
2021/05/11 16:17:06;;;;;;;1.52;0.90;;;19.00;88.30;;;;;;5069032;28;20501;-53
2021/05/11 16:19:34;;;;;;;1.83;1.17;;;19.00;88.30;;;;;;5069494;28;20083;-50
2021/05/11 16:22:01;;;;;;;3.08;1.00;;;19.00;88.30;;;;;;5065684;28;20099;-46
2021/05/11 16:24:30;;;;;;;3.83;1.35;;;19.00;88.30;;;;;;5065120;28;20041;-50
2021/05/11 16:26:58;;;;;;;3.30;1.30;;;19.00;88.30;;;;;;5069268;28;20024;-53
2021/05/11 16:29:25;;;;;;;2.33;0.95;;;19.00;88.30;;;;;;5071046;28;20421;-51
2021/05/11 16:31:52;;;;;;;2.08;0.85;;;19.00;88.40;;;;;;5072638;28;20032;-54
2021/05/11 16:34:20;;;;;;;2.75;1.45;;;19.00;88.30;;;;;;5075703;28;20020;-51
2021/05/11 16:36:48;;;;;;;3.30;1.23;;;19.00;88.40;;;;;;5075307;28;20041;-56
2021/05/11 16:39:15;;;;;;;2.30;0.90;;;19.00;88.40;;;;;;5075385;28;20475;-55
2021/05/11 16:41:42;;;;;;;1.98;0.93;;;18.90;88.30;;;;;;5075248;28;20456;-52
2021/05/11 16:44:10;;;;;;;2.22;1.23;;;18.90;88.40;;;;;;5075237;28;20028;-54
2021/05/11 16:46:38;;;;;;;2.58;1.05;;;18.90;88.40;;;;;;5074989;28;20085;-58
2021/05/11 16:49:05;;;;;;;2.15;1.02;;;18.90;88.30;;;;;;5075191;28;20036;-46
2021/05/11 16:51:33;;;;;;;2.47;1.08;;;18.90;88.40;;;;;;5075013;28;20020;-44
2021/05/11 16:54:00;;;;;;;2.40;1.17;;;18.90;88.40;;;;;;5074776;28;20120;-46
2021/05/11 16:56:27;;;;;;;2.08;1.02;;;18.90;88.30;;;;;;5073395;28;20471;-47
2021/05/11 16:58:55;;;;;;;4.60;1.08;;;18.90;88.40;;;;;;5075015;28;20524;-48
2021/05/11 17:01:22;;;;;;;2.13;0.90;;;18.90;88.40;;;;;;5073875;28;20407;-48
2021/05/11 17:03:49;;;;;;;2.90;1.02;;;18.90;88.40;;;;;;5074490;28;20470;-50
2021/05/11 17:06:16;;;;;;;1.73;1.00;;;18.90;88.40;;;;;;5074325;28;20026;-53
2021/05/11 17:08:44;;;;;;;2.30;1.00;;;18.90;88.40;;;;;;5074480;28;20401;-51
2021/05/11 17:11:11;;;;;;;2.17;1.20;;;18.90;88.30;;;;;;5074896;28;20040;-58
2021/05/11 17:13:39;;;;;;;1.95;1.02;;;18.90;88.40;;;;;;5074265;28;20471;-59
2021/05/11 17:16:09;;;;;;;2.70;1.40;;;18.80;88.40;;;;;;5073642;28;20518;-51
2021/05/11 17:18:37;;;;;;;2.80;1.20;;;18.80;88.40;;;;;;5074246;28;20016;-55
2021/05/11 17:21:07;;;;;;;3.25;1.75;;;18.80;88.40;;;;;;5074487;28;20021;-57
2021/05/11 17:23:34;;;;;;;2.20;1.02;;;18.80;88.40;;;;;;5074445;28;20024;-48
2021/05/11 17:26:02;;;;;;;1.70;0.80;;;18.80;88.50;;;;;;5074728;28;20029;-53
2021/05/11 17:28:34;;;;;;;2.35;1.10;;;18.80;88.50;;;;;;5073906;28;20020;-51
2021/05/11 17:31:05;;;;;;;2.30;1.00;;;18.80;88.40;;;;;;5073888;28;20040;-57
2021/05/11 17:33:34;;;;;;;2.50;1.23;;;18.80;88.50;;;;;;5074262;28;20127;-61